Aérodrome :
LOGIN :

S'inscrire | Disclaimer

   EN    FR    IT 

 










Légende :    VFR   VFR Marginal   IFR   IFR Intensif   IFR Très Intensif
Visi : 
Plafond : 
>= 8 km
>= 3000ft
5 à 8 km
1000 à 3000 ft
1500m à 5 km
500 à 1000 ft
800 à 1500m
200 à 500 ft
< 800m
< 200 ft
Symboles :   Orages  Brouillard  Fortes neiges  Fortes précipitations  Vent > 20 kt
SIGMETs :   Divers  Orages  Givrage  Turbulence  Onde Orograph.  Cendres Volcan.







- Altitude de l'aérodrome : 2945 ft
- Code IATA : RGS


LEBG - Burgos

DERNIER METAR :
  • 240830Z 04009KT 4000 BR BKN002 12/12 Q1021

METARs EXPIRÉS :
  • 240800Z 02007KT 3000 BR BKN001 11/11 Q1021
  • 240730Z VRB02KT 3000 0700NE R22/1600U R04/0600D BCFG BKN002 10/10 Q1021
  • 240715Z 07003KT 320V110 2500 BCFG BKN001 11/10 Q1021
  • 240700Z 05006KT 010V090 0600 R22/0650D R04/0800N FG VV002 10/10 Q1021
  • 240630Z 04009KT 0300 R22/0400N R04/0375N FG VV002 10/10 Q1020
  • 240600Z 04006KT 340V090 0300 R22/0500N R04/0250D FG VV002 10/10 Q1020

TAF TAF LEBG
Valide du 24 à 09h jusqu'au 24 à 18h UTC


240800Z 2409/2418 06008KT 9999 SCT012
PROB30
TEMPO 2409/2410 3000 BR BKN006
PROB30
TEMPO 2413/2418 FEW045TCU
Pas de NOTAMs connus pour ce terrain.



MET'MAP, la Météo Aéronautique d'un coup d'oeil ! - Copyright ORBIFLY Décembre 2007 - Disclaimer

ORBIFLY MET'MAP TEAM :

Programmation & Développement : Alexandra Zaïnal
Conception & Développement : Baudouin d'Aumeries
Co-Programmation & Développement : Marc-Olivier Méhu
Soutien technique & logistique : Manuel Goepfert

Contact : metmap@orbifly.com




SOURCES & CREDITS :

   NOAA